• Join FlightAware (Why Join?)
  • Login
  • US Flag 
07:46PM EDT


 

Airport Tracker/Info


-or-


 

Live Flight TrackerFlight Track Log ✈ SKW5631 ✈ 28-Jul-2013 ✈ KSFO - KBUR

Flight Track Log - Related Links

Times and Time Zones

All times are in EDT time to prevent confusion due to time zone crossing. See the SKW5631 flight status page for this flight to view local times or setup timezone preferences in your user account.

Time Position Orientation Groundspeed Altitude Reporting Facility
EDT Latitude Longitude Course Direction KTS MPH feet Rate Location/Type
10:19PM 37.6539 -122.3647 133° Southeast 176 203 25,000  Level Oakland Center
10:20PM 37.6983 -122.3861 339° North 229 264 4,100 -9,360 Descending Oakland Center
10:21PM 37.4347 -122.3707 113° Southeast  Level FlightAware Approximate
10:21PM 37.7072 -122.4631 278° West 239 275 6,000  Level Oakland Center
10:22PM 37.3599 -122.2385 136° Southeast  Level FlightAware Approximate
10:22PM 37.6414 -122.5089 209° Southwest 274 315 8,100  Level Oakland Center
10:23PM 37.2726 -122.1172 130° Southeast  Level FlightAware Approximate
10:23PM 37.5511 -122.4753 164° South 294 338 10,800  Level Oakland Center
10:24PM 37.1822 -121.9985 133° Southeast  Level FlightAware Approximate
10:24PM 37.4853 -122.4019 139° Southeast 309 356 12,300  Level Oakland Center
10:25PM 37.4167 -122.3272 139° Southeast 326 375 14,200 1,620 Climbing Oakland Center
10:26PM 37.3464 -122.2494 139° Southeast 335 386 15,700 1,380 Climbing Oakland Center
10:27PM 37.2719 -122.1689 139° Southeast 352 405 17,100 1,380 Climbing Oakland Center
10:28PM 37.1964 -122.0872 139° Southeast 360 414 18,600 1,380 Climbing Oakland Center
10:29PM 37.1208 -122.0033 138° Southeast 365 420 20,000 1,200 Climbing Oakland Center
10:30PM 37.0433 -121.9197 139° Southeast 370 426 21,100 1,080 Climbing Oakland Center
10:31PM 36.9650 -121.8342 139° Southeast 375 432 22,200 960 Climbing Oakland Center
10:32PM 36.8825 -121.7475 140° Southeast 385 443 23,100 900 Climbing Oakland Center
10:33PM 36.7961 -121.6550 139° Southeast 389 448 24,100 900 Climbing Oakland Center
10:34PM 36.7142 -121.5656 139° Southeast 392 451 25,000 420 Climbing Oakland Center
10:35PM 36.6108 -121.4550 139° Southeast 409 471 25,000  Level Oakland Center
10:36PM 36.5239 -121.3611 139° Southeast 413 475 25,000  Level Oakland Center
10:37PM 36.4364 -121.2692 140° Southeast 413 475 25,000  Level Oakland Center
10:38PM 36.3497 -121.1756 139° Southeast 414 476 25,000  Level Oakland Center
10:39PM 36.2631 -121.0808 139° Southeast 414 476 25,000  Level Oakland Center
10:40PM 36.1761 -120.9914 140° Southeast 408 470 25,000  Level Oakland Center
10:41PM 36.0911 -120.9011 139° Southeast 404 465 25,000  Level Oakland Center
10:42PM 36.0067 -120.8108 139° Southeast 403 464 25,000  Level Oakland Center
10:43PM 35.9225 -120.7222 140° Southeast 400 460 25,000  Level Oakland Center
10:44PM 35.8383 -120.6336 140° Southeast 397 457 25,000  Level Oakland Center
10:45PM 35.7542 -120.5469 140° Southeast 395 455 25,000  Level Oakland Center
10:47PM 35.5650 -120.3514 140° Southeast 394 453 25,000 -180 Level Los Angeles Center
10:48PM 35.4822 -120.2653 140° Southeast 392 451 24,600 -480 Descending Los Angeles Center
10:50PM 35.3956 -120.1789 141° Southeast 399 459 24,100 -540 Descending Los Angeles Center
10:51PM 35.2947 -120.0711 139° Southeast 398 458 23,500 -540 Descending Los Angeles Center
10:52PM 35.2114 -119.9872 141° Southeast 391 450 23,000 -540 Descending Los Angeles Center
10:53PM 35.1292 -119.9033 140° Southeast 386 444 22,500 -480 Descending Los Angeles Center
10:54PM 35.0672 -119.8325 137° Southeast 383 441 22,100 -420 Descending Los Angeles Center
10:55PM 34.9831 -119.7156 131° Southeast 382 440 21,600 -540 Descending Los Angeles Center
10:56PM 34.8975 -119.6022 133° Southeast 380 437 21,000 -540 Descending Los Angeles Center
10:57PM 34.8272 -119.5081 132° Southeast 376 433 20,500 -540 Descending Los Angeles Center
10:58PM 34.7556 -119.4119 132° Southeast 381 438 20,000 -1,620 Descending Los Angeles Center
10:59PM 34.6878 -119.3194 132° Southeast 369 425 17,300 -2,880 Descending Los Angeles Center
11:00PM 34.6089 -119.2183 133° Southeast 367 422 14,100 -3,000 Descending Los Angeles Center
11:01PM 34.5419 -119.1311 133° Southeast 356 410 11,200 -1,800 Descending Los Angeles Center
11:02PM 34.4733 -119.0378 132° Southeast 294 338 10,500 -1,320 Descending Los Angeles Center
11:03PM 34.4242 -118.9589 127° Southeast 293 337 8,500 -1,680 Descending Los Angeles Center
11:04PM 34.3761 -118.8819 127° Southeast 286 329 7,100 -1,380 Descending Los Angeles Center
11:05PM 34.3275 -118.8111 130° Southeast 274 315 5,700 -1,080 Descending Los Angeles Center
11:06PM 34.2861 -118.7436 127° Southeast 254 292 5,000 -720 Descending Los Angeles Center
11:07PM 34.2481 -118.6850 128° Southeast 230 265 4,300 -660 Descending Los Angeles Center
11:08PM 34.2044 -118.6136 126° Southeast 223 257 3,600 -420 Descending Los Angeles Center
11:09PM 34.2003 -118.5492 94° East 197 227 3,400 -420 Descending Los Angeles Center
11:10PM 34.1997 -118.4725 90° East 192 221 2,800 -840 Descending Los Angeles Center
11:12PM 34.1992 -118.4219 91° East 171 197 1,700 -840 Descending Los Angeles Center
11:13PM 34.1983 -118.3739 91° East 149 171 1,100 -600 Descending Los Angeles Center